Time;durP1;ratioP1;P1;durP2;ratioP2;P2;SDS_P1;SDS_P2;PMS_P1;PMS_P2;Temp;Humidity;BMP_temperature;BMP_pressure;BME280_temperature;BME280_humidity;BME280_pressure;Samples;Min_cycle;Max_cycle;Signal;HPM_P1;HPM_P2
2021/08/13 00:01:56;;;;;;;7.60;6.75;;;;;;;;;;5037407;28;20025;-72
2021/08/13 00:04:22;;;;;;;8.90;7.30;;;;;;;;;;5037908;28;20021;-71
2021/08/13 00:06:50;;;;;;;8.23;7.30;;;;;;;;;;5037665;28;20041;-71
2021/08/13 00:09:16;;;;;;;8.07;7.03;;;;;;;;;;5037645;28;20026;-72
2021/08/13 00:11:42;;;;;;;7.78;7.10;;;;;;;;;;5037870;28;20056;-72
2021/08/13 00:14:09;;;;;;;8.70;6.30;;;;;;;;;;5037257;28;20076;-71
2021/08/13 00:16:35;;;;;;;9.52;7.68;;;;;;;;;;5037035;28;20124;-72
2021/08/13 00:19:01;;;;;;;12.20;7.53;;;;;;;;;;5037131;28;20044;-72
2021/08/13 00:21:27;;;;;;;11.32;6.90;;;;;;;;;;5037086;28;20029;-71
2021/08/13 00:23:53;;;;;;;11.82;6.55;;;;;;;;;;5037147;28;20026;-71
2021/08/13 00:26:19;;;;;;;7.55;6.90;;;;;;;;;;5036984;28;20029;-71
2021/08/13 00:28:45;;;;;;;8.02;6.80;;;;;;;;;;5036830;28;20450;-71
2021/08/13 00:31:11;;;;;;;8.02;6.90;;;;;;;;;;5036708;28;20029;-71
2021/08/13 00:33:37;;;;;;;8.23;7.43;;;;;;;;;;5037014;28;20037;-71
2021/08/13 00:36:04;;;;;;;9.35;7.32;;;;;;;;;;5037193;28;20076;-71
2021/08/13 00:38:30;;;;;;;8.95;8.05;;;;;;;;;;5037077;28;20427;-71
2021/08/13 00:40:56;;;;;;;11.30;9.05;;;;;;;;;;5035962;28;20032;-71
2021/08/13 00:43:22;;;;;;;14.13;7.30;;;;;;;;;;5035701;28;20036;-70
2021/08/13 00:45:48;;;;;;;8.68;7.72;;;;;;;;;;5036445;28;20128;-72
2021/08/13 00:48:14;;;;;;;12.50;7.57;;;;;;;;;;5037616;28;20064;-72
2021/08/13 00:50:40;;;;;;;11.45;8.00;;;;;;;;;;5037478;28;20044;-72
2021/08/13 00:53:07;;;;;;;12.85;7.82;;;;;;;;;;5036727;28;20079;-72
2021/08/13 00:55:33;;;;;;;11.23;8.60;;;;;;;;;;5035666;28;20121;-70
2021/08/13 00:57:59;;;;;;;11.32;7.68;;;;;;;;;;5035790;28;20063;-71
2021/08/13 01:00:25;;;;;;;20.50;8.65;;;;;;;;;;5036113;28;20028;-71
2021/08/13 01:02:51;;;;;;;8.75;7.75;;;;;;;;;;5036461;28;20056;-71
2021/08/13 01:05:17;;;;;;;16.45;8.18;;;;;;;;;;5036016;28;20079;-71
2021/08/13 01:07:43;;;;;;;10.60;8.07;;;;;;;;;;5035851;28;20026;-71
2021/08/13 01:10:09;;;;;;;10.88;8.02;;;;;;;;;;5035829;28;20029;-71
2021/08/13 01:12:55;;;;;;;9.13;7.35;;;;;;;;;;5035644;28;20055;-71
2021/08/13 01:15:21;;;;;;;9.45;8.15;;;;;;;;;;5022092;28;20376;-73
2021/08/13 01:18:07;;;;;;;8.43;7.63;;;;;;;;;;5036144;28;20025;-71
2021/08/13 01:20:53;;;;;;;8.13;7.22;;;;;;;;;;5022042;28;20026;-71
2021/08/13 01:23:22;;;;;;;8.48;7.40;;;;;;;;;;5021038;28;20025;-72
2021/08/13 01:25:50;;;;;;;8.18;7.22;;;;;;;;;;5036382;28;20367;-72
2021/08/13 01:28:26;;;;;;;8.48;7.68;;;;;;;;;;5036175;28;20061;-73
2021/08/13 01:30:52;;;;;;;8.15;7.45;;;;;;;;;;5036144;28;20025;-72
2021/08/13 01:33:18;;;;;;;8.52;7.72;;;;;;;;;;5035227;28;20108;-70
2021/08/13 01:35:46;;;;;;;10.45;7.65;;;;;;;;;;5034680;28;20025;-71
2021/08/13 01:38:12;;;;;;;7.95;7.15;;;;;;;;;;5035255;28;20025;-71
2021/08/13 01:40:39;;;;;;;7.78;6.95;;;;;;;;;;5035470;28;20026;-71
2021/08/13 01:43:05;;;;;;;7.53;6.70;;;;;;;;;;5034728;28;20071;-71
2021/08/13 01:45:32;;;;;;;8.00;7.20;;;;;;;;;;5034647;28;20032;-71
2021/08/13 01:47:58;;;;;;;8.23;7.43;;;;;;;;;;5034966;28;20025;-71
2021/08/13 01:50:24;;;;;;;8.88;7.40;;;;;;;;;;5035303;28;20395;-72
2021/08/13 01:52:50;;;;;;;7.68;6.93;;;;;;;;;;5035356;28;20399;-70
2021/08/13 01:55:17;;;;;;;7.47;6.40;;;;;;;;;;5035354;28;20022;-71
2021/08/13 01:57:44;;;;;;;9.13;7.93;;;;;;;;;;5035626;28;20045;-70
2021/08/13 02:00:11;;;;;;;9.27;7.90;;;;;;;;;;5036012;28;20025;-71
2021/08/13 02:02:37;;;;;;;9.02;7.00;;;;;;;;;;5035605;28;20057;-72
2021/08/13 02:05:03;;;;;;;8.45;7.65;;;;;;;;;;5035550;28;20026;-72
2021/08/13 02:07:29;;;;;;;12.57;7.72;;;;;;;;;;5035453;28;20037;-72
2021/08/13 02:09:55;;;;;;;7.60;6.90;;;;;;;;;;5036555;28;20026;-71
2021/08/13 02:12:21;;;;;;;8.18;6.90;;;;;;;;;;5036180;28;20121;-71
2021/08/13 02:14:47;;;;;;;7.72;7.03;;;;;;;;;;5036051;28;20083;-71
2021/08/13 02:17:15;;;;;;;8.40;7.55;;;;;;;;;;5036303;28;20026;-71
2021/08/13 02:19:47;;;;;;;9.23;7.53;;;;;;;;;;5035247;28;20022;-71
2021/08/13 02:22:14;;;;;;;7.30;6.68;;;;;;;;;;5035774;28;20032;-70
2021/08/13 02:24:40;;;;;;;12.60;7.05;;;;;;;;;;5034988;28;20048;-70
2021/08/13 02:27:06;;;;;;;7.05;6.32;;;;;;;;;;5034840;28;20021;-71
2021/08/13 02:29:33;;;;;;;10.02;6.57;;;;;;;;;;5034696;28;20018;-70
2021/08/13 02:31:59;;;;;;;7.70;6.97;;;;;;;;;;5035036;28;20029;-70
2021/08/13 02:34:25;;;;;;;10.18;7.00;;;;;;;;;;5034691;28;20364;-71
2021/08/13 02:37:00;;;;;;;9.35;6.85;;;;;;;;;;5034659;28;20081;-70
2021/08/13 02:39:27;;;;;;;8.07;7.25;;;;;;;;;;5034777;28;20032;-70
2021/08/13 02:41:54;;;;;;;7.68;6.97;;;;;;;;;;5034545;28;20021;-70
2021/08/13 02:44:20;;;;;;;9.13;6.30;;;;;;;;;;5034347;28;20064;-70
2021/08/13 02:46:49;;;;;;;14.50;7.32;;;;;;;;;;5034465;28;20029;-71
2021/08/13 02:49:15;;;;;;;8.98;7.55;;;;;;;;;;5034623;28;20112;-69
2021/08/13 02:51:41;;;;;;;7.97;7.28;;;;;;;;;;5034498;28;20107;-70
2021/08/13 02:54:07;;;;;;;9.60;6.95;;;;;;;;;;5034675;28;20083;-70
2021/08/13 02:56:34;;;;;;;8.88;6.20;;;;;;;;;;5034617;28;20064;-70
2021/08/13 02:59:01;;;;;;;11.93;7.13;;;;;;;;;;5034200;28;20417;-70
2021/08/13 03:01:28;;;;;;;6.65;6.00;;;;;;;;;;5034194;28;20372;-71
2021/08/13 03:03:54;;;;;;;12.45;6.72;;;;;;;;;;5034214;28;20021;-70
2021/08/13 03:06:20;;;;;;;6.47;5.90;;;;;;;;;;5033983;28;20025;-71
2021/08/13 03:08:46;;;;;;;7.85;7.07;;;;;;;;;;5034542;28;20028;-70
2021/08/13 03:11:12;;;;;;;13.45;7.55;;;;;;;;;;5034382;28;20068;-70
2021/08/13 03:13:38;;;;;;;10.38;7.32;;;;;;;;;;5034299;28;20060;-70
2021/08/13 03:16:04;;;;;;;17.30;10.05;;;;;;;;;;5034302;28;20522;-71
2021/08/13 03:18:30;;;;;;;23.83;10.10;;;;;;;;;;5034901;28;20414;-71
2021/08/13 03:20:58;;;;;;;18.08;10.88;;;;;;;;;;5037078;28;20022;-71
2021/08/13 03:23:24;;;;;;;17.20;10.63;;;;;;;;;;5038517;28;20116;-71
2021/08/13 03:25:50;;;;;;;16.50;9.98;;;;;;;;;;5037593;28;20471;-71
2021/08/13 03:28:16;;;;;;;11.75;8.98;;;;;;;;;;5037493;28;20033;-70
2021/08/13 03:30:43;;;;;;;14.77;9.57;;;;;;;;;;5036757;28;20479;-71
2021/08/13 03:33:10;;;;;;;21.70;11.73;;;;;;;;;;5037409;28;20159;-70
2021/08/13 03:35:36;;;;;;;20.55;10.00;;;;;;;;;;5037604;28;20037;-71
2021/08/13 03:38:02;;;;;;;12.82;7.97;;;;;;;;;;5037082;28;20044;-70
2021/08/13 03:40:28;;;;;;;9.27;8.35;;;;;;;;;;5037299;28;20109;-70
2021/08/13 03:42:54;;;;;;;11.15;8.35;;;;;;;;;;5036902;28;20025;-70
2021/08/13 03:45:20;;;;;;;11.73;9.63;;;;;;;;;;5036998;28;20045;-72
2021/08/13 03:47:46;;;;;;;14.05;8.07;;;;;;;;;;5037055;28;20030;-71
2021/08/13 03:50:12;;;;;;;14.45;8.82;;;;;;;;;;5037083;28;20036;-70
2021/08/13 03:52:39;;;;;;;17.40;9.35;;;;;;;;;;5037063;28;20036;-71
2021/08/13 03:55:05;;;;;;;13.85;8.95;;;;;;;;;;5037125;28;20041;-70
2021/08/13 03:57:31;;;;;;;13.23;9.10;;;;;;;;;;5036834;28;20041;-71
2021/08/13 03:59:57;;;;;;;8.95;7.22;;;;;;;;;;5036808;28;20533;-72
2021/08/13 04:02:25;;;;;;;16.52;8.27;;;;;;;;;;5036808;28;20393;-71
2021/08/13 04:04:51;;;;;;;11.85;7.47;;;;;;;;;;5037354;28;20033;-70
2021/08/13 04:07:17;;;;;;;11.90;8.32;;;;;;;;;;5036966;28;20449;-71
2021/08/13 04:09:43;;;;;;;16.13;8.10;;;;;;;;;;5036549;28;20372;-71
2021/08/13 04:12:09;;;;;;;9.25;7.57;;;;;;;;;;5036573;28;20033;-71
2021/08/13 04:14:36;;;;;;;11.93;8.10;;;;;;;;;;5036551;28;20044;-72
2021/08/13 04:17:02;;;;;;;16.00;8.82;;;;;;;;;;5037192;28;20492;-71
2021/08/13 04:19:28;;;;;;;14.63;8.55;;;;;;;;;;5036342;28;20071;-70
2021/08/13 04:21:54;;;;;;;9.85;7.93;;;;;;;;;;5036418;28;20032;-70
2021/08/13 04:24:20;;;;;;;8.93;8.05;;;;;;;;;;5036476;28;20065;-71
2021/08/13 04:26:46;;;;;;;17.77;8.48;;;;;;;;;;5036048;28;20478;-71
2021/08/13 04:29:12;;;;;;;11.70;8.25;;;;;;;;;;5036341;28;20371;-71
2021/08/13 04:31:38;;;;;;;9.20;7.40;;;;;;;;;;5035644;28;20060;-71
2021/08/13 04:34:04;;;;;;;15.13;8.60;;;;;;;;;;5036065;28;20034;-71
2021/08/13 04:36:30;;;;;;;12.00;7.97;;;;;;;;;;5036233;28;20052;-71
2021/08/13 04:38:56;;;;;;;10.50;7.30;;;;;;;;;;5036174;28;20044;-70
2021/08/13 04:41:22;;;;;;;10.18;8.15;;;;;;;;;;5036001;28;20064;-71
2021/08/13 04:43:48;;;;;;;9.10;7.25;;;;;;;;;;5036178;28;20023;-72
2021/08/13 04:46:14;;;;;;;10.40;8.20;;;;;;;;;;5036257;28;20525;-72
2021/08/13 04:48:40;;;;;;;12.32;7.78;;;;;;;;;;5036337;28;20391;-71
2021/08/13 04:51:06;;;;;;;11.52;8.73;;;;;;;;;;5036735;28;20025;-71
2021/08/13 04:53:32;;;;;;;15.35;8.25;;;;;;;;;;5036576;28;20032;-71
2021/08/13 04:55:58;;;;;;;10.60;7.95;;;;;;;;;;5036564;28;20040;-71
2021/08/13 04:58:24;;;;;;;12.32;8.73;;;;;;;;;;5035769;28;20128;-70
2021/08/13 05:00:50;;;;;;;9.57;8.55;;;;;;;;;;5035686;28;20026;-71
2021/08/13 05:03:17;;;;;;;9.57;8.25;;;;;;;;;;5035679;28;20039;-71
2021/08/13 05:05:43;;;;;;;9.10;8.18;;;;;;;;;;5035696;28;20025;-70
2021/08/13 05:08:09;;;;;;;9.70;8.70;;;;;;;;;;5036007;28;20104;-70
2021/08/13 05:10:37;;;;;;;14.55;8.57;;;;;;;;;;5035865;28;20021;-70
2021/08/13 05:13:03;;;;;;;8.73;7.53;;;;;;;;;;5035468;28;20116;-73
2021/08/13 05:15:30;;;;;;;9.02;8.10;;;;;;;;;;5035591;28;20037;-70
2021/08/13 05:17:56;;;;;;;11.85;7.35;;;;;;;;;;5035462;28;20022;-70
2021/08/13 05:20:24;;;;;;;9.93;7.50;;;;;;;;;;5035509;28;20033;-71
2021/08/13 05:22:50;;;;;;;9.68;8.77;;;;;;;;;;5036142;28;20025;-71
2021/08/13 05:25:16;;;;;;;11.95;7.55;;;;;;;;;;5036030;28;20053;-71
2021/08/13 05:27:42;;;;;;;9.05;8.13;;;;;;;;;;5036145;28;20071;-71
2021/08/13 05:30:09;;;;;;;10.02;7.43;;;;;;;;;;5035904;28;20056;-70
2021/08/13 05:32:38;;;;;;;7.65;6.93;;;;;;;;;;5035220;28;20036;-70
2021/08/13 05:35:05;;;;;;;8.10;7.25;;;;;;;;;;5036331;28;20066;-70
2021/08/13 05:37:31;;;;;;;7.93;7.22;;;;;;;;;;5036549;28;20022;-70
2021/08/13 05:39:57;;;;;;;8.00;7.13;;;;;;;;;;5036556;28;20107;-71
2021/08/13 05:42:23;;;;;;;8.80;7.88;;;;;;;;;;5035152;28;20029;-73
2021/08/13 05:44:49;;;;;;;8.32;6.43;;;;;;;;;;5035793;28;20083;-71
2021/08/13 05:47:15;;;;;;;7.45;6.75;;;;;;;;;;5036133;28;20108;-71
2021/08/13 05:49:41;;;;;;;8.73;7.93;;;;;;;;;;5036182;28;20025;-71
2021/08/13 05:52:07;;;;;;;9.27;8.20;;;;;;;;;;5036039;28;20031;-71
2021/08/13 05:54:33;;;;;;;7.85;6.97;;;;;;;;;;5036009;28;20033;-71
2021/08/13 05:56:59;;;;;;;10.00;8.05;;;;;;;;;;5035962;28;20052;-71
2021/08/13 05:59:26;;;;;;;8.32;7.53;;;;;;;;;;5036224;28;20057;-71
2021/08/13 06:01:52;;;;;;;8.82;7.78;;;;;;;;;;5036389;28;20048;-71
2021/08/13 06:04:18;;;;;;;7.90;6.30;;;;;;;;;;5036078;28;20028;-71
2021/08/13 06:06:44;;;;;;;9.23;8.32;;;;;;;;;;5035950;28;20112;-71
2021/08/13 06:09:10;;;;;;;9.60;8.00;;;;;;;;;;5035739;28;20022;-71
2021/08/13 06:11:37;;;;;;;9.63;6.47;;;;;;;;;;5035235;28;20021;-71
2021/08/13 06:14:03;;;;;;;9.80;7.85;;;;;;;;;;5035322;28;20025;-71
2021/08/13 06:16:29;;;;;;;8.23;7.15;;;;;;;;;;5035329;28;20491;-71
2021/08/13 06:18:55;;;;;;;9.13;6.95;;;;;;;;;;5035226;28;20025;-70
2021/08/13 06:21:22;;;;;;;8.10;6.55;;;;;;;;;;5035738;28;20022;-71
2021/08/13 06:23:48;;;;;;;10.80;7.72;;;;;;;;;;5035008;28;20040;-71
2021/08/13 06:26:14;;;;;;;7.80;7.13;;;;;;;;;;5035083;28;20032;-70
2021/08/13 06:28:40;;;;;;;10.02;7.43;;;;;;;;;;5035102;28;20040;-71
2021/08/13 06:31:06;;;;;;;11.60;7.80;;;;;;;;;;5034897;28;20028;-70
2021/08/13 06:33:32;;;;;;;7.57;6.80;;;;;;;;;;5035211;28;20034;-71
2021/08/13 06:35:58;;;;;;;7.25;6.55;;;;;;;;;;5035480;28;20025;-71
2021/08/13 06:38:24;;;;;;;11.68;7.50;;;;;;;;;;5035158;28;20132;-71
2021/08/13 06:40:50;;;;;;;8.40;7.60;;;;;;;;;;5035099;28;20021;-72
2021/08/13 06:43:16;;;;;;;8.93;6.47;;;;;;;;;;5035394;28;20037;-72
2021/08/13 06:45:42;;;;;;;7.82;6.47;;;;;;;;;;5034637;28;20021;-71
2021/08/13 06:48:08;;;;;;;8.75;6.60;;;;;;;;;;5035016;28;20036;-71
2021/08/13 06:50:35;;;;;;;6.38;5.85;;;;;;;;;;5034877;28;20032;-71
2021/08/13 06:53:01;;;;;;;9.70;8.65;;;;;;;;;;5034633;28;20029;-71
2021/08/13 06:55:28;;;;;;;14.15;7.30;;;;;;;;;;5033678;28;20022;-71
2021/08/13 06:57:54;;;;;;;13.32;10.27;;;;;;;;;;5033850;28;20407;-71
2021/08/13 07:00:20;;;;;;;12.88;8.68;;;;;;;;;;5035011;28;20438;-71
2021/08/13 07:02:48;;;;;;;8.82;8.00;;;;;;;;;;5034961;28;20067;-70
2021/08/13 07:05:15;;;;;;;11.05;7.18;;;;;;;;;;5034799;28;20025;-72
2021/08/13 07:07:41;;;;;;;13.68;7.93;;;;;;;;;;5034860;28;20030;-72
2021/08/13 07:10:08;;;;;;;7.88;6.88;;;;;;;;;;5034983;28;20025;-71
2021/08/13 07:12:35;;;;;;;9.02;6.30;;;;;;;;;;5034682;28;20040;-72
2021/08/13 07:15:01;;;;;;;13.65;7.15;;;;;;;;;;5035143;28;20068;-69
2021/08/13 07:17:27;;;;;;;9.25;8.02;;;;;;;;;;5035058;28;20101;-70
2021/08/13 07:19:53;;;;;;;12.95;6.70;;;;;;;;;;5034698;28;20030;-71
2021/08/13 07:22:19;;;;;;;7.45;6.75;;;;;;;;;;5035025;28;20387;-72
2021/08/13 07:24:45;;;;;;;7.75;7.05;;;;;;;;;;5035431;28;20026;-70
2021/08/13 07:27:11;;;;;;;7.30;6.57;;;;;;;;;;5034298;28;20372;-71
2021/08/13 07:29:37;;;;;;;12.10;6.90;;;;;;;;;;5035842;28;20345;-71
2021/08/13 07:32:04;;;;;;;6.53;5.93;;;;;;;;;;5035287;28;20033;-71
2021/08/13 07:34:30;;;;;;;7.40;6.65;;;;;;;;;;5034047;28;20052;-72
2021/08/13 07:36:56;;;;;;;11.20;7.75;;;;;;;;;;5034182;28;20037;-70
2021/08/13 07:39:22;;;;;;;6.57;5.97;;;;;;;;;;5034503;28;20030;-69
2021/08/13 07:41:48;;;;;;;8.15;5.20;;;;;;;;;;5034500;28;20431;-70
2021/08/13 07:44:14;;;;;;;7.30;6.60;;;;;;;;;;5034766;28;20025;-69
2021/08/13 07:46:41;;;;;;;6.32;5.72;;;;;;;;;;5034436;28;20036;-69
2021/08/13 07:49:07;;;;;;;13.60;6.28;;;;;;;;;;5034831;28;20033;-72
2021/08/13 07:51:33;;;;;;;7.03;5.80;;;;;;;;;;5035696;28;20022;-71
2021/08/13 07:53:59;;;;;;;6.65;6.05;;;;;;;;;;5035316;28;20112;-71
2021/08/13 07:56:25;;;;;;;6.78;5.65;;;;;;;;;;5034480;28;20160;-71
2021/08/13 07:58:51;;;;;;;6.78;5.72;;;;;;;;;;5034538;28;20054;-70
2021/08/13 08:01:17;;;;;;;7.70;6.55;;;;;;;;;;5034982;28;20533;-74
2021/08/13 08:03:43;;;;;;;6.68;6.00;;;;;;;;;;5036059;28;20064;-75
2021/08/13 08:06:09;;;;;;;6.68;6.07;;;;;;;;;;5037454;28;20029;-75
2021/08/13 08:08:35;;;;;;;7.03;6.32;;;;;;;;;;5041084;28;20029;-77
2021/08/13 08:11:01;;;;;;;7.80;5.93;;;;;;;;;;5039448;28;20072;-75
2021/08/13 08:13:27;;;;;;;10.45;6.15;;;;;;;;;;5039275;28;20037;-75
2021/08/13 08:15:53;;;;;;;8.00;5.72;;;;;;;;;;5039221;28;20475;-74
2021/08/13 08:18:22;;;;;;;7.85;6.63;;;;;;;;;;5038894;28;20045;-75
2021/08/13 08:20:48;;;;;;;7.13;6.53;;;;;;;;;;5038745;28;20022;-75
2021/08/13 08:23:15;;;;;;;6.70;6.10;;;;;;;;;;5039929;28;20071;-76
2021/08/13 08:25:41;;;;;;;6.70;6.10;;;;;;;;;;5040410;28;20156;-79
2021/08/13 08:28:07;;;;;;;7.00;6.40;;;;;;;;;;5040304;28;20072;-76
2021/08/13 08:30:33;;;;;;;6.70;6.10;;;;;;;;;;5040305;28;20025;-81
2021/08/13 08:32:59;;;;;;;6.78;6.18;;;;;;;;;;5040303;28;20033;-80
2021/08/13 08:35:25;;;;;;;6.97;5.80;;;;;;;;;;5040416;28;20029;-76
2021/08/13 08:37:58;;;;;;;6.28;5.68;;;;;;;;;;5039285;28;20116;-77
2021/08/13 08:40:25;;;;;;;6.15;5.65;;;;;;;;;;5038981;28;20078;-75
2021/08/13 08:42:51;;;;;;;7.20;5.32;;;;;;;;;;5038748;28;20044;-73
2021/08/13 08:45:17;;;;;;;6.50;5.90;;;;;;;;;;5038366;28;20067;-74
2021/08/13 08:47:43;;;;;;;7.38;6.68;;;;;;;;;;5039577;28;20021;-74
2021/08/13 08:50:09;;;;;;;6.88;6.18;;;;;;;;;;5040321;28;20486;-74
2021/08/13 08:52:36;;;;;;;6.72;6.10;;;;;;;;;;5038661;28;20029;-73
2021/08/13 08:55:02;;;;;;;5.68;5.18;;;;;;;;;;5038529;28;20120;-81
2021/08/13 08:57:29;;;;;;;6.53;5.93;;;;;;;;;;5039321;28;20025;-75
2021/08/13 08:59:57;;;;;;;8.05;6.93;;;;;;;;;;5038996;28;20471;-75
2021/08/13 09:02:23;;;;;;;7.55;6.85;;;;;;;;;;5039372;28;20476;-75
2021/08/13 09:04:49;;;;;;;8.68;5.88;;;;;;;;;;5039712;28;20025;-76
2021/08/13 09:07:15;;;;;;;5.93;5.45;;;;;;;;;;5039140;28;20555;-74
2021/08/13 09:09:41;;;;;;;6.25;5.65;;;;;;;;;;5036907;28;20021;-72
2021/08/13 09:12:07;;;;;;;7.50;6.82;;;;;;;;;;5038092;28;20060;-73
2021/08/13 09:14:37;;;;;;;5.97;5.43;;;;;;;;;;5037327;28;20037;-72
2021/08/13 09:17:03;;;;;;;5.90;4.95;;;;;;;;;;5037100;28;20037;-75
2021/08/13 09:19:46;;;;;;;11.02;6.47;;;;;;;;;;5037396;28;20494;-74
2021/08/13 09:22:13;;;;;;;6.40;5.80;;;;;;;;;;5038385;28;20037;-76
2021/08/13 09:24:40;;;;;;;6.72;6.13;;;;;;;;;;5038770;28;20103;-79
2021/08/13 09:27:26;;;;;;;7.80;6.13;;;;;;;;;;5038029;28;20037;-78
2021/08/13 09:30:12;;;;;;;6.85;5.50;;;;;;;;;;5021249;28;20510;-78
2021/08/13 09:32:38;;;;;;;7.95;5.45;;;;;;;;;;5020938;28;20032;-75
2021/08/13 09:35:05;;;;;;;6.32;5.78;;;;;;;;;;5035680;28;20075;-74
2021/08/13 09:37:31;;;;;;;6.63;5.75;;;;;;;;;;5035610;28;20025;-74
2021/08/13 09:39:57;;;;;;;6.10;5.60;;;;;;;;;;5035611;28;20108;-74
2021/08/13 09:42:32;;;;;;;9.60;6.93;;;;;;;;;;5035762;28;20063;-74
2021/08/13 09:45:00;;;;;;;10.60;5.45;;;;;;;;;;5035552;28;20034;-75
2021/08/13 09:47:38;;;;;;;7.15;5.93;;;;;;;;;;5036060;28;20025;-74
2021/08/13 09:50:04;;;;;;;10.60;5.95;;;;;;;;;;5035696;28;20378;-74
2021/08/13 09:52:30;;;;;;;7.13;5.95;;;;;;;;;;5035514;28;20025;-76
2021/08/13 09:55:13;;;;;;;12.35;5.82;;;;;;;;;;5035757;28;20041;-76
2021/08/13 09:57:44;;;;;;;10.20;6.15;;;;;;;;;;5034894;28;20076;-74
2021/08/13 10:00:10;;;;;;;7.35;6.57;;;;;;;;;;5036178;28;20034;-74
2021/08/13 10:02:38;;;;;;;24.35;5.60;;;;;;;;;;5035066;28;20034;-75
2021/08/13 10:05:16;;;;;;;7.05;6.45;;;;;;;;;;5035527;28;20079;-74
2021/08/13 10:07:46;;;;;;;5.88;5.35;;;;;;;;;;5035336;28;20029;-75
2021/08/13 10:10:12;;;;;;;8.20;5.85;;;;;;;;;;5034741;28;20028;-75
2021/08/13 10:12:42;;;;;;;6.40;5.88;;;;;;;;;;5034838;28;20094;-74
2021/08/13 10:15:09;;;;;;;6.55;6.00;;;;;;;;;;5035437;28;20029;-74
2021/08/13 10:17:35;;;;;;;9.10;5.75;;;;;;;;;;5034902;28;20021;-74
2021/08/13 10:20:01;;;;;;;6.15;5.65;;;;;;;;;;5034725;28;20021;-74
2021/08/13 10:22:27;;;;;;;6.47;5.97;;;;;;;;;;5034960;28;20026;-74
2021/08/13 10:24:53;;;;;;;6.85;6.22;;;;;;;;;;5034782;28;20029;-74
2021/08/13 10:27:20;;;;;;;7.40;5.75;;;;;;;;;;5035358;28;20134;-74
2021/08/13 10:29:47;;;;;;;5.85;5.35;;;;;;;;;;5034116;28;20464;-74
2021/08/13 10:32:14;;;;;;;10.20;6.10;;;;;;;;;;5034529;28;20357;-74
2021/08/13 10:34:40;;;;;;;8.63;5.95;;;;;;;;;;5034870;28;20041;-80
2021/08/13 10:37:09;;;;;;;8.52;5.63;;;;;;;;;;5034480;28;20021;-77
2021/08/13 10:39:35;;;;;;;7.57;6.10;;;;;;;;;;5034235;28;20033;-80
2021/08/13 10:42:02;;;;;;;8.57;5.50;;;;;;;;;;5035069;28;20017;-77
2021/08/13 10:44:29;;;;;;;8.30;5.40;;;;;;;;;;5034750;28;20055;-78
2021/08/13 10:46:56;;;;;;;8.18;5.88;;;;;;;;;;5034859;28;20025;-78
2021/08/13 10:49:22;;;;;;;11.18;5.93;;;;;;;;;;5034442;28;20034;-78
2021/08/13 10:52:04;;;;;;;7.63;5.43;;;;;;;;;;5034078;28;20045;-80
2021/08/13 10:54:50;;;;;;;5.82;5.32;;;;;;;;;;5035072;28;20076;-73
2021/08/13 10:57:16;;;;;;;5.38;4.85;;;;;;;;;;5019852;28;20477;-77
2021/08/13 10:59:54;;;;;;;6.03;5.50;;;;;;;;;;5034070;28;20046;-77
2021/08/13 11:02:20;;;;;;;5.35;4.85;;;;;;;;;;5034359;28;20025;-75
2021/08/13 11:04:49;;;;;;;7.40;5.63;;;;;;;;;;5034378;28;20476;-75
2021/08/13 11:07:15;;;;;;;4.97;4.47;;;;;;;;;;5034190;28;20026;-74
2021/08/13 11:09:41;;;;;;;6.32;5.78;;;;;;;;;;5034168;28;20032;-75
2021/08/13 11:12:09;;;;;;;10.48;5.90;;;;;;;;;;5036126;28;20105;-74
2021/08/13 11:14:37;;;;;;;8.98;6.43;;;;;;;;;;5040207;28;20045;-75
2021/08/13 11:17:03;;;;;;;17.02;6.63;;;;;;;;;;5034159;28;20162;-74
2021/08/13 11:19:38;;;;;;;6.72;6.13;;;;;;;;;;5034448;28;20076;-75
2021/08/13 11:22:06;;;;;;;6.20;5.60;;;;;;;;;;5033299;28;20036;-75
2021/08/13 11:24:49;;;;;;;8.55;6.65;;;;;;;;;;5034259;28;20026;-75
2021/08/13 11:27:15;;;;;;;10.43;6.72;;;;;;;;;;5034223;28;20026;-74
2021/08/13 11:29:44;;;;;;;11.25;5.93;;;;;;;;;;5033818;28;20022;-75
2021/08/13 11:32:27;;;;;;;7.38;5.88;;;;;;;;;;5033936;28;20514;-75
2021/08/13 11:34:56;;;;;;;10.15;6.65;;;;;;;;;;5034321;28;20038;-74
2021/08/13 11:37:44;;;;;;;6.70;5.95;;;;;;;;;;5034061;28;20021;-76
2021/08/13 11:40:30;;;;;;;6.15;5.57;;;;;;;;;;5019661;28;20387;-75
2021/08/13 11:42:58;;;;;;;9.40;6.07;;;;;;;;;;5023683;28;20033;-75
2021/08/13 11:45:41;;;;;;;7.93;5.88;;;;;;;;;;5037688;28;20021;-75
2021/08/13 11:48:07;;;;;;;6.57;5.47;;;;;;;;;;5037670;28;20025;-75
2021/08/13 11:50:34;;;;;;;6.55;6.00;;;;;;;;;;5037631;28;20348;-74
2021/08/13 11:53:00;;;;;;;11.95;5.95;;;;;;;;;;5038320;28;20021;-75
2021/08/13 11:55:26;;;;;;;6.88;5.63;;;;;;;;;;5037259;28;20060;-75
2021/08/13 11:57:54;;;;;;;5.70;5.20;;;;;;;;;;5037195;28;20399;-75
2021/08/13 12:00:21;;;;;;;6.03;5.53;;;;;;;;;;5037213;28;20083;-75
2021/08/13 12:02:47;;;;;;;13.73;5.90;;;;;;;;;;5037418;28;20029;-75
2021/08/13 12:05:13;;;;;;;6.97;5.82;;;;;;;;;;5036919;28;20495;-76
2021/08/13 12:07:40;;;;;;;5.68;4.85;;;;;;;;;;5037241;28;20471;-75
2021/08/13 12:10:10;;;;;;;6.25;5.75;;;;;;;;;;5037815;28;20037;-75
2021/08/13 12:12:36;;;;;;;7.03;5.95;;;;;;;;;;5037145;28;20026;-74
2021/08/13 12:15:02;;;;;;;6.78;6.05;;;;;;;;;;5037520;28;20463;-75
2021/08/13 12:17:28;;;;;;;6.05;5.55;;;;;;;;;;5037064;28;20116;-74
2021/08/13 12:19:54;;;;;;;5.78;4.85;;;;;;;;;;5036703;28;20029;-74
2021/08/13 12:22:28;;;;;;;6.32;5.68;;;;;;;;;;5037580;28;20049;-74
2021/08/13 12:24:54;;;;;;;6.25;5.65;;;;;;;;;;5037609;28;20029;-75
2021/08/13 12:27:24;;;;;;;5.45;5.03;;;;;;;;;;5037061;28;20022;-75
2021/08/13 12:29:50;;;;;;;15.20;6.03;;;;;;;;;;5036873;28;20021;-75
2021/08/13 12:32:16;;;;;;;5.80;5.30;;;;;;;;;;5036674;28;20048;-75
2021/08/13 12:34:42;;;;;;;8.40;5.85;;;;;;;;;;5037171;28;20487;-77
2021/08/13 12:37:10;;;;;;;6.05;5.45;;;;;;;;;;5036821;28;20029;-77
2021/08/13 12:39:38;;;;;;;5.88;5.35;;;;;;;;;;5036623;28;20025;-76
2021/08/13 12:42:05;;;;;;;9.25;5.65;;;;;;;;;;5036947;28;20369;-77
2021/08/13 12:44:31;;;;;;;6.05;5.45;;;;;;;;;;5036877;28;20033;-77
2021/08/13 12:46:58;;;;;;;5.95;5.45;;;;;;;;;;5036455;28;20025;-77
2021/08/13 12:49:24;;;;;;;5.70;5.20;;;;;;;;;;5036605;28;20052;-77
2021/08/13 12:52:07;;;;;;;6.03;5.53;;;;;;;;;;5036573;28;20029;-78
2021/08/13 12:54:33;;;;;;;6.60;5.45;;;;;;;;;;5036569;28;20446;-79
2021/08/13 12:57:00;;;;;;;5.97;5.07;;;;;;;;;;5036679;28;20538;-79
2021/08/13 12:59:33;;;;;;;8.13;5.75;;;;;;;;;;5036855;28;20483;-78
2021/08/13 13:02:00;;;;;;;6.93;5.50;;;;;;;;;;5036643;28;20164;-79
2021/08/13 13:04:41;;;;;;;5.63;5.13;;;;;;;;;;5036444;28;20100;-78
2021/08/13 13:07:08;;;;;;;6.45;5.85;;;;;;;;;;5034953;28;20575;-80
2021/08/13 13:09:34;;;;;;;6.68;6.07;;;;;;;;;;5035990;28;20030;-79
2021/08/13 13:12:16;;;;;;;7.15;6.38;;;;;;;;;;5036083;28;20087;-79
2021/08/13 13:14:43;;;;;;;6.40;5.90;;;;;;;;;;5036714;28;20399;-79
2021/08/13 13:17:09;;;;;;;6.38;5.60;;;;;;;;;;5036529;28;20108;-79
2021/08/13 13:19:35;;;;;;;5.82;5.32;;;;;;;;;;5035907;28;20021;-79
2021/08/13 13:22:21;;;;;;;5.85;5.35;;;;;;;;;;5036098;28;20037;-78
2021/08/13 13:25:07;;;;;;;6.80;5.53;;;;;;;;;;5021482;28;20021;-78
2021/08/13 13:27:49;;;;;;;5.93;5.43;;;;;;;;;;5021806;28;20032;-78
2021/08/13 13:30:33;;;;;;;6.35;5.53;;;;;;;;;;5036089;28;20026;-79
2021/08/13 13:33:01;;;;;;;7.78;6.32;;;;;;;;;;5035738;28;20275;-81
2021/08/13 13:35:27;;;;;;;7.00;6.00;;;;;;;;;;5035820;28;20360;-78
2021/08/13 13:37:53;;;;;;;9.35;5.55;;;;;;;;;;5035669;28;20467;-78
2021/08/13 13:40:19;;;;;;;5.80;5.20;;;;;;;;;;5035432;28;20049;-77
2021/08/13 13:42:45;;;;;;;5.78;5.28;;;;;;;;;;5035310;28;20029;-77
2021/08/13 13:45:12;;;;;;;6.13;5.53;;;;;;;;;;5035531;28;20470;-76
2021/08/13 13:47:38;;;;;;;6.47;5.88;;;;;;;;;;5035354;28;20032;-76
2021/08/13 13:50:04;;;;;;;7.38;5.63;;;;;;;;;;5034889;28;20041;-77
2021/08/13 13:52:30;;;;;;;9.30;6.57;;;;;;;;;;5035490;28;20553;-76
2021/08/13 13:54:56;;;;;;;5.72;5.00;;;;;;;;;;5035889;28;20064;-76
2021/08/13 13:57:23;;;;;;;6.13;5.40;;;;;;;;;;5034993;28;20106;-77
2021/08/13 13:59:49;;;;;;;7.68;5.97;;;;;;;;;;5035054;28;20026;-77
2021/08/13 14:02:15;;;;;;;8.07;5.95;;;;;;;;;;5035187;28;20116;-77
2021/08/13 14:04:41;;;;;;;5.65;5.10;;;;;;;;;;5034776;28;20029;-76
2021/08/13 14:07:07;;;;;;;6.43;5.93;;;;;;;;;;5035038;28;20515;-76
2021/08/13 14:09:33;;;;;;;6.25;5.05;;;;;;;;;;5035053;28;20025;-79
2021/08/13 14:11:59;;;;;;;7.32;6.53;;;;;;;;;;5035017;28;20033;-77
2021/08/13 14:14:25;;;;;;;5.80;5.30;;;;;;;;;;5034687;28;20462;-77
2021/08/13 14:16:51;;;;;;;6.60;5.63;;;;;;;;;;5034742;28;20387;-77
2021/08/13 14:19:17;;;;;;;6.68;5.68;;;;;;;;;;5035751;28;20102;-76
2021/08/13 14:21:43;;;;;;;5.82;5.20;;;;;;;;;;5035002;28;20026;-73
2021/08/13 14:24:46;;;;;;;8.18;4.70;;;;;;;;;;5031446;28;20037;-74
2021/08/13 14:27:12;;;;;;;5.68;5.05;;;;;;;;;;4953577;29;20541;-75
2021/08/13 14:29:38;;;;;;;6.55;5.93;;;;;;;;;;5017123;28;20397;-75
2021/08/13 14:32:04;;;;;;;5.85;5.35;;;;;;;;;;5034666;28;20025;-75
2021/08/13 14:34:30;;;;;;;6.22;5.63;;;;;;;;;;5034803;28;20044;-75
2021/08/13 14:36:56;;;;;;;8.25;5.60;;;;;;;;;;5034835;28;20025;-75
2021/08/13 14:39:22;;;;;;;7.07;4.95;;;;;;;;;;5034333;28;20080;-74
2021/08/13 14:41:48;;;;;;;5.38;4.90;;;;;;;;;;5034273;28;20044;-74